createdAt,value
2018-08-23T00:01:32.557Z,29.90
2018-08-23T00:04:05.919Z,29.73
2018-08-23T00:06:33.071Z,29.53
2018-08-23T00:09:00.184Z,30.07
2018-08-23T00:11:28.933Z,28.73
2018-08-23T00:13:56.107Z,28.27
2018-08-23T00:16:35.462Z,28.60
2018-08-23T00:19:03.567Z,28.00
2018-08-23T00:21:30.679Z,29.80
2018-08-23T00:24:05.103Z,29.43
2018-08-23T00:26:32.193Z,27.33
2018-08-23T00:28:59.311Z,27.67
2018-08-23T00:31:26.431Z,32.37
2018-08-23T00:33:53.544Z,28.53
2018-08-23T00:36:20.676Z,30.17
2018-08-23T00:38:47.816Z,29.27
2018-08-23T00:41:14.937Z,27.87
2018-08-23T00:43:42.066Z,28.17
2018-08-23T00:46:14.249Z,28.87
2018-08-23T00:48:41.596Z,28.87
2018-08-23T00:51:08.723Z,26.80
2018-08-23T00:53:36.628Z,27.57
2018-08-23T00:56:23.317Z,28.40
2018-08-23T00:59:08.013Z,29.27
2018-08-23T01:01:35.136Z,30.73
2018-08-23T01:04:02.296Z,30.17
2018-08-23T01:06:38.524Z,29.53
2018-08-23T01:09:06.870Z,28.67
2018-08-23T01:11:34.015Z,31.47
2018-08-23T01:14:01.139Z,28.50
2018-08-23T01:16:28.253Z,29.77
2018-08-23T01:18:59.995Z,28.97
2018-08-23T01:21:27.135Z,29.27
2018-08-23T01:23:54.292Z,32.77
2018-08-23T01:26:21.433Z,30.80
2018-08-23T01:28:48.581Z,30.90
2018-08-23T01:31:25.017Z,29.97
2018-08-23T01:33:53.118Z,30.67
2018-08-23T01:36:39.123Z,31.97
2018-08-23T01:39:08.286Z,30.97
2018-08-23T01:41:35.432Z,33.83
2018-08-23T01:44:02.604Z,33.73
2018-08-23T01:46:35.448Z,34.43
2018-08-23T01:49:04.570Z,35.30
2018-08-23T01:51:31.677Z,30.17
2018-08-23T01:53:58.772Z,29.93
2018-08-23T01:56:25.892Z,32.30
2018-08-23T01:58:53.024Z,32.87
2018-08-23T02:01:21.206Z,32.37
2018-08-23T02:03:48.319Z,33.17
2018-08-23T02:06:15.488Z,25.37
2018-08-23T02:08:43.913Z,27.17
2018-08-23T02:11:11.070Z,28.00
2018-08-23T02:13:38.177Z,33.43
2018-08-23T02:16:05.344Z,28.30
2018-08-23T02:18:33.100Z,37.07
2018-08-23T02:21:05.842Z,31.77
2018-08-23T02:23:34.840Z,29.90
2018-08-23T02:26:01.970Z,34.33
2018-08-23T02:28:29.101Z,28.50
2018-08-23T02:30:56.732Z,29.83
2018-08-23T02:33:24.423Z,28.63
2018-08-23T02:36:19.632Z,27.43
2018-08-23T02:38:57.426Z,29.23
2018-08-23T02:41:24.564Z,28.30
2018-08-23T02:43:51.688Z,28.13
2018-08-23T02:46:18.820Z,28.80
2018-08-23T02:48:45.946Z,24.53
2018-08-23T02:51:13.049Z,25.13
2018-08-23T02:53:42.565Z,25.07
2018-08-23T02:56:13.437Z,26.53
2018-08-23T02:58:47.296Z,24.60
2018-08-23T03:01:14.428Z,29.50
2018-08-23T03:04:20.948Z,26.73
2018-08-23T03:06:58.425Z,29.20
2018-08-23T03:09:27.509Z,24.57
2018-08-23T03:11:55.793Z,24.13
2018-08-23T03:14:23.893Z,27.17
2018-08-23T03:17:08.105Z,27.33
2018-08-23T03:19:35.279Z,28.40
2018-08-23T03:22:02.397Z,25.07
2018-08-23T03:24:29.504Z,27.23
2018-08-23T03:26:56.619Z,25.43
2018-08-23T03:29:23.756Z,26.97
2018-08-23T03:31:50.871Z,23.73
2018-08-23T03:34:17.988Z,26.63
2018-08-23T03:36:45.152Z,27.97
2018-08-23T03:39:13.157Z,22.50
2018-08-23T03:41:40.357Z,26.07
2018-08-23T03:44:21.245Z,26.67
2018-08-23T03:46:51.651Z,26.10
2018-08-23T03:49:23.644Z,26.23
2018-08-23T03:51:50.823Z,31.37
2018-08-23T03:54:17.959Z,25.63
2018-08-23T03:56:51.695Z,28.83
2018-08-23T03:59:18.877Z,27.33
2018-08-23T04:01:45.968Z,23.97
2018-08-23T04:04:13.123Z,26.40
2018-08-23T04:06:40.223Z,29.00
2018-08-23T04:09:08.272Z,31.50
2018-08-23T04:11:35.433Z,29.63
2018-08-23T04:14:02.588Z,29.27
2018-08-23T04:16:30.611Z,28.27
2018-08-23T04:18:57.738Z,30.20
2018-08-23T04:21:25.582Z,35.83
2018-08-23T04:23:52.704Z,28.20
2018-08-23T04:26:20.304Z,33.93
2018-08-23T04:28:47.453Z,33.00
2018-08-23T04:31:14.613Z,27.63
2018-08-23T04:33:41.764Z,28.77
2018-08-23T04:36:22.716Z,32.80
2018-08-23T04:38:54.421Z,31.60
2018-08-23T04:41:21.556Z,32.00
2018-08-23T04:43:49.000Z,32.30
2018-08-23T04:46:20.712Z,30.73
2018-08-23T04:48:47.836Z,28.23
2018-08-23T04:51:14.960Z,29.53
2018-08-23T04:53:42.089Z,30.77
2018-08-23T04:56:09.221Z,28.53
2018-08-23T04:58:36.356Z,27.10
2018-08-23T05:01:03.501Z,31.40
2018-08-23T05:03:30.633Z,31.87
2018-08-23T05:05:57.761Z,31.13
2018-08-23T05:08:24.880Z,38.87
2018-08-23T05:10:52.004Z,37.70
2018-08-23T05:13:19.142Z,36.57
2018-08-23T05:15:46.314Z,39.60
2018-08-23T05:18:13.433Z,42.63
2018-08-23T05:20:40.608Z,44.70
2018-08-23T05:23:07.768Z,37.13
2018-08-23T05:25:34.868Z,40.80
2018-08-23T05:28:12.375Z,38.70
2018-08-23T05:30:41.503Z,37.67
2018-08-23T05:33:13.827Z,38.97
2018-08-23T05:35:41.053Z,38.87
2018-08-23T05:38:08.922Z,37.73
2018-08-23T05:40:42.366Z,42.90
2018-08-23T05:43:09.633Z,37.27
2018-08-23T05:45:42.496Z,50.13
2018-08-23T05:48:28.699Z,46.67
2018-08-23T05:50:55.977Z,50.03
2018-08-23T05:53:23.090Z,60.17
2018-08-23T05:55:51.833Z,57.27
2018-08-23T05:58:21.756Z,73.67
2018-08-23T06:00:48.896Z,82.17
2018-08-23T06:03:16.148Z,78.27
2018-08-23T06:05:43.724Z,94.60
2018-08-23T06:08:11.081Z,94.23
2018-08-23T06:10:38.181Z,99.03
2018-08-23T06:13:05.350Z,99.30
2018-08-23T06:15:37.087Z,121.87
2018-08-23T06:18:05.173Z,96.17
2018-08-23T06:20:32.374Z,95.60
2018-08-23T06:22:59.514Z,107.00
2018-08-23T06:25:26.665Z,98.77
2018-08-23T06:27:53.974Z,95.73
2018-08-23T06:30:21.961Z,90.70
2018-08-23T06:32:53.745Z,97.20
2018-08-23T06:35:20.841Z,110.53
2018-08-23T06:37:53.433Z,108.03
2018-08-23T06:40:20.589Z,103.60
2018-08-23T06:43:00.228Z,107.67
2018-08-23T06:45:27.389Z,109.47
2018-08-23T06:48:02.857Z,97.93
2018-08-23T06:50:29.992Z,92.33
2018-08-23T06:52:57.165Z,92.57
2018-08-23T06:55:32.813Z,90.03
2018-08-23T06:58:00.935Z,86.50
2018-08-23T07:00:28.278Z,84.47
2018-08-23T07:02:55.649Z,86.57
2018-08-23T07:05:22.939Z,82.93
2018-08-23T07:07:50.215Z,83.03
2018-08-23T07:10:17.391Z,84.47
2018-08-23T07:12:44.541Z,78.40
2018-08-23T07:15:11.754Z,81.27
2018-08-23T07:17:38.968Z,79.60
2018-08-23T07:20:09.529Z,80.73
2018-08-23T07:22:36.658Z,81.77
2018-08-23T07:25:03.822Z,65.37
2018-08-23T07:27:30.941Z,70.93
2018-08-23T07:29:58.710Z,61.67
2018-08-23T07:32:27.408Z,68.73
2018-08-23T07:35:14.098Z,61.30
2018-08-23T07:37:42.729Z,60.23
2018-08-23T07:40:12.242Z,57.40
2018-08-23T07:42:40.725Z,56.43
2018-08-23T07:45:08.177Z,55.43
2018-08-23T07:47:37.885Z,56.40
2018-08-23T07:50:05.750Z,51.93
2018-08-23T07:52:32.981Z,53.50
2018-08-23T07:55:02.394Z,51.03
2018-08-23T07:57:30.089Z,53.77
2018-08-23T07:59:58.465Z,51.43
2018-08-23T08:02:25.967Z,49.63
2018-08-23T08:04:53.094Z,50.40
2018-08-23T08:07:25.935Z,49.87
2018-08-23T08:09:53.052Z,53.23
2018-08-23T08:12:25.815Z,46.17
2018-08-23T08:14:53.013Z,42.40
2018-08-23T08:17:25.097Z,38.63
2018-08-23T08:19:57.368Z,36.27
2018-08-23T08:22:24.617Z,38.63
2018-08-23T08:24:59.054Z,33.43
2018-08-23T08:27:26.683Z,38.53
2018-08-23T08:29:53.842Z,37.57
2018-08-23T08:32:21.013Z,37.20
2018-08-23T08:34:48.142Z,33.93
2018-08-23T08:37:15.270Z,33.97
2018-08-23T08:39:42.404Z,32.73
2018-08-23T08:42:09.545Z,34.37
2018-08-23T08:44:36.721Z,34.10
2018-08-23T08:47:03.882Z,34.00
2018-08-23T08:49:32.468Z,35.50
2018-08-23T08:51:59.604Z,32.87
2018-08-23T08:54:26.745Z,34.43
2018-08-23T08:56:55.427Z,32.10
2018-08-23T08:59:26.594Z,32.43
2018-08-23T09:01:53.837Z,32.60
2018-08-23T09:04:26.636Z,34.73
2018-08-23T09:06:53.763Z,34.73
2018-08-23T09:09:28.880Z,34.30
2018-08-23T09:11:57.529Z,33.67
2018-08-23T09:14:24.639Z,33.20
2018-08-23T09:16:51.820Z,33.87
2018-08-23T09:19:18.941Z,31.60
2018-08-23T09:21:56.470Z,32.10
2018-08-23T09:24:25.300Z,31.07
2018-08-23T09:26:52.605Z,35.17
2018-08-23T09:29:31.345Z,32.77
2018-08-23T09:32:08.380Z,31.73
2018-08-23T09:34:35.796Z,32.23
2018-08-23T09:37:02.950Z,31.37
2018-08-23T09:39:30.070Z,36.03
2018-08-23T09:41:57.190Z,32.80
2018-08-23T09:44:24.300Z,30.93
2018-08-23T09:46:55.625Z,30.03
2018-08-23T09:49:23.137Z,30.10
2018-08-23T09:51:50.354Z,31.17
2018-08-23T09:54:23.292Z,31.43
2018-08-23T09:56:50.425Z,31.33
2018-08-23T09:59:17.557Z,31.30
2018-08-23T10:01:50.359Z,30.10
2018-08-23T10:04:23.192Z,30.90
2018-08-23T10:07:00.650Z,30.13
2018-08-23T10:09:29.287Z,34.10
2018-08-23T10:12:02.296Z,30.70
2018-08-23T10:14:35.217Z,26.77
2018-08-23T10:17:08.084Z,27.43
2018-08-23T10:19:40.942Z,26.67
2018-08-23T10:22:13.818Z,23.20
2018-08-23T10:24:40.925Z,25.00
2018-08-23T10:27:08.064Z,23.67
2018-08-23T10:29:35.195Z,22.27
2018-08-23T10:32:02.379Z,23.67
2018-08-23T10:34:29.517Z,22.50
2018-08-23T10:36:56.649Z,24.73
2018-08-23T10:39:23.785Z,25.50
2018-08-23T10:41:50.925Z,26.67
2018-08-23T10:44:18.120Z,25.47
2018-08-23T10:46:51.026Z,25.43
2018-08-23T10:49:18.136Z,25.00
2018-08-23T10:51:45.273Z,23.70
2018-08-23T10:54:12.382Z,22.37
2018-08-23T10:56:39.521Z,24.90
2018-08-23T10:59:06.935Z,27.47
2018-08-23T11:01:33.963Z,25.87
2018-08-23T11:04:05.695Z,23.63
2018-08-23T11:06:33.018Z,22.93
2018-08-23T11:09:05.765Z,19.70
2018-08-23T11:11:34.013Z,23.07
2018-08-23T11:14:06.721Z,20.17
2018-08-23T11:16:39.626Z,18.77
2018-08-23T11:19:12.417Z,20.03
2018-08-23T11:21:39.544Z,19.13
2018-08-23T11:24:06.642Z,18.67
2018-08-23T11:26:33.766Z,21.00
2018-08-23T11:29:00.860Z,21.03
2018-08-23T11:31:29.025Z,21.10
2018-08-23T11:33:56.133Z,20.27
2018-08-23T11:36:23.249Z,24.27
2018-08-23T11:38:50.385Z,21.43
2018-08-23T11:41:18.037Z,20.53
2018-08-23T11:43:45.169Z,21.50
2018-08-23T11:46:15.016Z,21.27
2018-08-23T11:48:43.423Z,18.83
2018-08-23T11:51:11.164Z,20.37
2018-08-23T11:53:38.437Z,21.43
2018-08-23T11:56:05.507Z,19.90
2018-08-23T11:58:32.731Z,19.43
2018-08-23T12:01:05.591Z,18.57
2018-08-23T12:03:32.768Z,17.90
2018-08-23T12:05:59.899Z,15.83
2018-08-23T12:08:27.069Z,15.27
2018-08-23T12:10:54.236Z,14.17
2018-08-23T12:13:21.351Z,15.10
2018-08-23T12:15:48.492Z,18.50
2018-08-23T12:18:15.596Z,17.57
2018-08-23T12:20:42.681Z,16.83
2018-08-23T12:23:09.801Z,18.27
2018-08-23T12:25:36.942Z,16.70
2018-08-23T12:28:09.946Z,17.53
2018-08-23T12:30:37.065Z,18.57
2018-08-23T12:33:04.236Z,17.40
2018-08-23T12:35:32.376Z,14.93
2018-08-23T12:38:05.336Z,17.50
2018-08-23T12:40:38.265Z,16.60
2018-08-23T12:43:07.648Z,13.93
2018-08-23T12:45:38.779Z,15.10
2018-08-23T12:48:06.085Z,15.10
2018-08-23T12:50:33.256Z,15.10
2018-08-23T12:53:00.382Z,14.83
2018-08-23T12:55:27.496Z,13.37
2018-08-23T12:57:54.616Z,18.33
2018-08-23T13:00:21.750Z,13.27
2018-08-23T13:02:49.019Z,13.13
2018-08-23T13:05:16.064Z,12.80
2018-08-23T13:07:43.137Z,14.70
2018-08-23T13:10:10.261Z,15.57
2018-08-23T13:12:37.393Z,15.83
2018-08-23T13:15:04.536Z,14.73
2018-08-23T13:17:31.741Z,14.77
2018-08-23T13:19:58.811Z,14.67
2018-08-23T13:22:31.643Z,14.67
2018-08-23T13:25:06.910Z,15.53
2018-08-23T13:27:34.119Z,13.43
2018-08-23T13:30:01.520Z,15.30
2018-08-23T13:32:28.640Z,13.37
2018-08-23T13:34:56.297Z,12.63
2018-08-23T13:37:23.788Z,14.50
2018-08-23T13:39:50.910Z,12.57
2018-08-23T13:42:18.505Z,14.10
2018-08-23T13:44:45.627Z,13.53
2018-08-23T13:47:12.782Z,12.13
2018-08-23T13:49:39.943Z,12.77
2018-08-23T13:52:07.105Z,15.03
2018-08-23T13:54:34.400Z,12.70
2018-08-23T13:57:01.470Z,10.63
2018-08-23T13:59:28.642Z,11.57
2018-08-23T14:01:55.755Z,12.77
2018-08-23T14:04:22.886Z,8.90
2018-08-23T14:06:50.020Z,8.53
2018-08-23T14:09:17.172Z,7.17
2018-08-23T14:11:44.309Z,6.77
2018-08-23T14:14:11.454Z,9.93
2018-08-23T14:16:38.594Z,8.13
2018-08-23T14:19:05.748Z,8.63
2018-08-23T14:21:32.879Z,7.27
2018-08-23T14:23:59.996Z,9.47
2018-08-23T14:26:27.125Z,9.60
2018-08-23T14:28:54.256Z,8.63
2018-08-23T14:31:21.393Z,6.13
2018-08-23T14:33:48.510Z,7.03
2018-08-23T14:36:15.625Z,6.83
2018-08-23T14:38:42.792Z,6.70
2018-08-23T14:41:09.883Z,7.00
2018-08-23T14:43:37.008Z,6.70
2018-08-23T14:46:09.838Z,6.83
2018-08-23T14:48:38.666Z,7.47
2018-08-23T14:51:05.848Z,6.60
2018-08-23T14:53:32.983Z,8.73
2018-08-23T14:56:05.917Z,6.67
2018-08-23T14:58:33.026Z,7.73
2018-08-23T15:01:00.267Z,6.50
2018-08-23T15:03:27.304Z,8.87
2018-08-23T15:05:54.427Z,6.23
2018-08-23T15:08:21.556Z,6.53
2018-08-23T15:10:48.954Z,6.67
2018-08-23T15:13:16.069Z,7.17
2018-08-23T15:15:48.454Z,6.83
2018-08-23T15:18:16.323Z,6.83
2018-08-23T15:20:43.455Z,6.60
2018-08-23T15:23:10.557Z,5.70
2018-08-23T15:25:37.812Z,6.53
2018-08-23T15:28:05.011Z,7.97
2018-08-23T15:30:32.177Z,9.43
2018-08-23T15:32:59.381Z,5.47
2018-08-23T15:35:26.474Z,5.97
2018-08-23T15:37:53.672Z,6.40
2018-08-23T15:40:20.808Z,6.50
2018-08-23T15:42:47.956Z,8.47
2018-08-23T15:45:15.484Z,7.30
2018-08-23T15:47:42.617Z,8.17
2018-08-23T15:50:09.756Z,5.83
2018-08-23T15:52:36.913Z,5.10
2018-08-23T15:55:04.264Z,5.13
2018-08-23T15:57:31.261Z,4.03
2018-08-23T15:59:58.398Z,4.00
2018-08-23T16:02:25.519Z,3.73
2018-08-23T16:04:52.692Z,4.60
2018-08-23T16:07:19.865Z,3.50
2018-08-23T16:09:47.010Z,3.37
2018-08-23T16:12:14.149Z,3.63
2018-08-23T16:14:41.249Z,4.33
2018-08-23T16:17:13.993Z,5.67
2018-08-23T16:19:46.794Z,3.10
2018-08-23T16:22:13.940Z,4.60
2018-08-23T16:24:41.094Z,2.50
2018-08-23T16:27:08.246Z,3.83
2018-08-23T16:29:35.381Z,4.93
2018-08-23T16:32:02.564Z,4.37
2018-08-23T16:34:29.697Z,3.40
2018-08-23T16:36:56.872Z,3.17
2018-08-23T16:39:24.107Z,5.87
2018-08-23T16:41:51.254Z,2.90
2018-08-23T16:44:18.553Z,3.50
2018-08-23T16:46:45.721Z,2.73
2018-08-23T16:49:12.890Z,2.50
2018-08-23T16:51:40.173Z,3.87
2018-08-23T16:54:07.356Z,3.13
2018-08-23T16:56:34.506Z,3.13
2018-08-23T16:59:01.673Z,4.27
2018-08-23T17:01:28.832Z,3.00
2018-08-23T17:03:56.808Z,5.10
2018-08-23T17:06:25.299Z,3.70
2018-08-23T17:08:52.592Z,4.00
2018-08-23T17:11:19.813Z,5.33
2018-08-23T17:13:47.144Z,2.10
2018-08-23T17:16:20.074Z,5.20
2018-08-23T17:18:47.221Z,4.90
2018-08-23T17:21:14.344Z,3.03
2018-08-23T17:23:41.480Z,4.17
2018-08-23T17:26:08.632Z,3.73
2018-08-23T17:28:35.801Z,3.73
2018-08-23T17:31:02.983Z,3.17
2018-08-23T17:33:30.590Z,2.40
2018-08-23T17:35:57.801Z,4.23
2018-08-23T17:38:25.784Z,3.80
2018-08-23T17:40:52.969Z,3.70
2018-08-23T17:43:20.137Z,4.63
2018-08-23T17:45:48.953Z,3.70
2018-08-23T17:48:16.108Z,4.73
2018-08-23T17:50:43.250Z,3.13
2018-08-23T17:53:10.381Z,2.40
2018-08-23T17:55:37.578Z,3.47
2018-08-23T17:58:04.762Z,3.63
2018-08-23T18:00:31.881Z,4.17
2018-08-23T18:02:59.006Z,2.97
2018-08-23T18:05:26.157Z,2.30
2018-08-23T18:07:53.319Z,3.63
2018-08-23T18:10:20.487Z,2.70
2018-08-23T18:12:47.641Z,3.23
2018-08-23T18:15:14.780Z,2.83
2018-08-23T18:17:41.925Z,3.47
2018-08-23T18:20:09.350Z,2.60
2018-08-23T18:22:36.669Z,2.80
2018-08-23T18:25:03.893Z,3.20
2018-08-23T18:27:31.061Z,5.07
2018-08-23T18:29:58.196Z,4.07
2018-08-23T18:32:25.603Z,3.43
2018-08-23T18:34:52.839Z,3.27
2018-08-23T18:37:19.953Z,2.73
2018-08-23T18:39:47.077Z,4.47
2018-08-23T18:42:14.229Z,3.93
2018-08-23T18:44:41.397Z,2.20
2018-08-23T18:47:08.595Z,5.93
2018-08-23T18:49:35.746Z,8.50
2018-08-23T18:52:02.904Z,4.70
2018-08-23T18:54:30.029Z,4.00
2018-08-23T18:56:57.227Z,4.67
2018-08-23T18:59:24.389Z,4.93
2018-08-23T19:01:51.560Z,5.30
2018-08-23T19:04:18.695Z,5.77
2018-08-23T19:06:46.173Z,3.50
2018-08-23T19:09:13.652Z,4.57
2018-08-23T19:11:41.105Z,3.67
2018-08-23T19:14:08.253Z,2.67
2018-08-23T19:16:41.040Z,3.00
2018-08-23T19:19:08.200Z,3.00
2018-08-23T19:21:35.340Z,4.63
2018-08-23T19:24:02.548Z,2.70
2018-08-23T19:26:29.685Z,4.87
2018-08-23T19:28:56.856Z,4.37
2018-08-23T19:31:24.121Z,3.57
2018-08-23T19:33:51.237Z,2.77
2018-08-23T19:36:18.325Z,3.30
2018-08-23T19:38:45.433Z,4.03
2018-08-23T19:41:12.565Z,2.43
2018-08-23T19:43:39.718Z,2.87
2018-08-23T19:46:12.555Z,3.97
2018-08-23T19:48:40.168Z,3.57
2018-08-23T19:51:07.444Z,4.23
2018-08-23T19:53:34.533Z,4.50
2018-08-23T19:56:01.664Z,2.90
2018-08-23T19:58:28.772Z,2.47
2018-08-23T20:00:55.898Z,3.47
2018-08-23T20:03:23.029Z,2.40
2018-08-23T20:05:50.363Z,3.67
2018-08-23T20:08:17.492Z,2.47
2018-08-23T20:10:44.625Z,3.77
2018-08-23T20:13:11.748Z,3.83
2018-08-23T20:15:38.904Z,1.80
2018-08-23T20:18:06.030Z,2.37
2018-08-23T20:20:33.113Z,3.07
2018-08-23T20:23:00.255Z,2.10
2018-08-23T20:25:27.404Z,4.93
2018-08-23T20:27:54.480Z,4.87
2018-08-23T20:30:21.625Z,3.43
2018-08-23T20:32:48.738Z,2.90
2018-08-23T20:35:16.656Z,2.80
2018-08-23T20:37:43.784Z,4.17
2018-08-23T20:40:10.892Z,4.50
2018-08-23T20:42:38.006Z,3.83
2018-08-23T20:45:05.572Z,4.13
2018-08-23T20:47:32.688Z,3.57
2018-08-23T20:49:59.826Z,5.77
2018-08-23T20:52:26.926Z,4.40
2018-08-23T20:54:54.029Z,2.97
2018-08-23T20:57:21.157Z,5.77
2018-08-23T20:59:48.248Z,3.50
2018-08-23T21:02:15.369Z,3.93
2018-08-23T21:04:42.555Z,7.30
2018-08-23T21:07:09.613Z,8.03
2018-08-23T21:09:36.724Z,10.10
2018-08-23T21:12:04.014Z,9.47
2018-08-23T21:14:31.136Z,10.43
2018-08-23T21:16:58.248Z,10.90
2018-08-23T21:19:25.348Z,11.47
2018-08-23T21:21:52.450Z,12.00
2018-08-23T21:24:19.567Z,11.37
2018-08-23T21:26:46.657Z,13.00
2018-08-23T21:29:13.761Z,13.00
2018-08-23T21:31:40.929Z,12.43
2018-08-23T21:34:08.057Z,12.67
2018-08-23T21:36:35.168Z,15.17
2018-08-23T21:39:02.845Z,12.63
2018-08-23T21:41:29.944Z,13.70
2018-08-23T21:43:57.055Z,13.50
2018-08-23T21:46:24.148Z,13.97
2018-08-23T21:48:51.264Z,14.53
2018-08-23T21:51:18.416Z,14.33
2018-08-23T21:53:45.660Z,14.60
2018-08-23T21:56:12.666Z,15.87
2018-08-23T21:58:39.812Z,14.17
2018-08-23T22:01:08.088Z,14.50
2018-08-23T22:03:35.763Z,14.73
2018-08-23T22:06:02.969Z,15.03
2018-08-23T22:08:30.157Z,14.77
2018-08-23T22:10:57.284Z,13.70
2018-08-23T22:13:24.496Z,14.87
2018-08-23T22:15:51.609Z,14.70
2018-08-23T22:18:19.078Z,14.53
2018-08-23T22:20:46.179Z,15.90
2018-08-23T22:23:13.572Z,12.20
2018-08-23T22:25:41.057Z,15.20
2018-08-23T22:28:08.896Z,16.47
2018-08-23T22:30:36.574Z,13.30
2018-08-23T22:33:03.721Z,12.77
2018-08-23T22:35:30.865Z,12.93
2018-08-23T22:37:58.002Z,12.90
2018-08-23T22:40:25.109Z,14.80
2018-08-23T22:42:52.237Z,13.10
2018-08-23T22:45:19.409Z,14.87
2018-08-23T22:47:46.516Z,15.03
2018-08-23T22:50:13.625Z,13.03
2018-08-23T22:52:40.800Z,12.87
2018-08-23T22:55:07.946Z,14.20
2018-08-23T22:57:35.113Z,12.77
2018-08-23T23:00:02.277Z,12.73
2018-08-23T23:02:35.048Z,14.47
2018-08-23T23:05:02.169Z,14.10
2018-08-23T23:07:29.288Z,12.53
2018-08-23T23:09:56.376Z,14.80
2018-08-23T23:12:23.480Z,13.60
2018-08-23T23:14:50.577Z,13.13
2018-08-23T23:17:17.680Z,13.90
2018-08-23T23:19:44.780Z,12.67
2018-08-23T23:22:11.873Z,14.20
2018-08-23T23:24:44.601Z,14.10
2018-08-23T23:27:11.726Z,14.03
2018-08-23T23:29:38.827Z,14.50
2018-08-23T23:32:06.045Z,13.87
2018-08-23T23:34:33.140Z,15.90
2018-08-23T23:37:00.245Z,17.00
2018-08-23T23:39:27.344Z,16.53
2018-08-23T23:41:54.448Z,15.40
2018-08-23T23:44:21.532Z,16.13
2018-08-23T23:46:48.640Z,17.27
2018-08-23T23:49:15.750Z,17.53
2018-08-23T23:51:42.833Z,17.27
2018-08-23T23:54:09.957Z,16.20
2018-08-23T23:56:37.064Z,18.50
2018-08-23T23:59:04.557Z,16.90
